Time;durP1;ratioP1;P1;durP2;ratioP2;P2;SDS_P1;SDS_P2;PMS_P1;PMS_P2;Temp;Humidity;BMP_temperature;BMP_pressure;BME280_temperature;BME280_humidity;BME280_pressure;Samples;Min_cycle;Max_cycle;Signal;HPM_P1;HPM_P2
2021/08/23 04:02:09;;;;;;;2.23;2.17;;;14.90;99.90;;;;;;6074140;22;1211406;-69
2021/08/23 04:04:36;;;;;;;3.20;2.93;;;14.90;99.90;;;;;;6155262;23;20183;-69
2021/08/23 04:07:03;;;;;;;3.20;2.90;;;14.80;99.90;;;;;;6154828;23;20804;-69
2021/08/23 04:09:29;;;;;;;2.83;2.60;;;14.80;99.90;;;;;;6155313;23;20923;-69
2021/08/23 04:11:56;;;;;;;7.33;2.83;;;14.80;99.90;;;;;;6131960;23;20444;-69
2021/08/23 04:14:22;;;;;;;3.60;2.60;;;14.70;99.90;;;;;;6125635;23;20424;-68
2021/08/23 04:16:49;;;;;;;2.80;2.70;;;14.70;99.90;;;;;;6125089;23;20431;-69
2021/08/23 04:19:17;;;;;;;2.87;2.67;;;14.70;99.90;;;;;;6125454;23;20424;-71
2021/08/23 04:21:44;;;;;;;4.23;3.10;;;14.70;99.90;;;;;;6124970;23;20507;-70
2021/08/23 04:24:10;;;;;;;2.60;2.40;;;14.60;99.90;;;;;;6125300;23;20424;-70
2021/08/23 04:26:37;;;;;;;2.87;2.77;;;14.60;99.90;;;;;;6124999;23;20423;-70
2021/08/23 04:29:03;;;;;;;3.10;2.93;;;14.60;99.90;;;;;;6125704;23;20427;-70
2021/08/23 04:31:31;;;;;;;2.30;2.20;;;14.60;99.90;;;;;;6124704;23;20439;-70
2021/08/23 04:33:58;;;;;;;3.73;3.43;;;14.60;99.90;;;;;;6125543;23;20446;-70
2021/08/23 04:36:26;;;;;;;2.90;2.70;;;14.60;99.90;;;;;;6125359;23;20432;-70
2021/08/23 04:38:52;;;;;;;3.70;2.77;;;14.60;99.90;;;;;;6125521;23;20424;-70
2021/08/23 04:41:19;;;;;;;3.83;3.00;;;14.60;99.90;;;;;;6124644;23;20455;-70
2021/08/23 04:43:46;;;;;;;3.87;3.23;;;14.60;99.90;;;;;;6125284;23;20481;-71
2021/08/23 04:46:12;;;;;;;3.10;2.90;;;14.60;99.90;;;;;;6124774;23;20423;-70
2021/08/23 04:48:39;;;;;;;3.90;3.70;;;14.60;99.90;;;;;;6125548;23;20490;-70
2021/08/23 04:51:06;;;;;;;3.20;3.00;;;14.60;99.90;;;;;;6134874;23;20447;-70
2021/08/23 04:53:34;;;;;;;3.63;3.30;;;14.60;99.90;;;;;;6125189;23;20430;-70
2021/08/23 04:56:01;;;;;;;3.50;3.17;;;14.80;99.90;;;;;;6124987;23;20427;-70
2021/08/23 04:58:28;;;;;;;3.33;3.13;;;14.80;99.90;;;;;;6125441;23;20438;-70
2021/08/23 05:00:54;;;;;;;3.00;2.90;;;14.90;99.90;;;;;;6123969;23;20981;-70
2021/08/23 05:03:21;;;;;;;3.00;2.67;;;14.80;99.90;;;;;;6125366;23;20454;-71
2021/08/23 05:05:48;;;;;;;3.03;2.83;;;14.80;99.90;;;;;;6125136;23;20423;-70
2021/08/23 05:08:18;;;;;;;4.50;3.87;;;14.80;99.90;;;;;;6125542;23;20408;-70
2021/08/23 05:10:46;;;;;;;3.10;2.80;;;14.80;99.90;;;;;;6124634;23;20787;-70
2021/08/23 05:13:13;;;;;;;2.60;2.60;;;14.80;99.90;;;;;;6124821;23;20424;-70
2021/08/23 05:15:39;;;;;;;4.13;3.67;;;14.90;99.90;;;;;;6124605;23;20925;-71
2021/08/23 05:18:06;;;;;;;2.97;2.77;;;14.90;99.90;;;;;;6125351;23;20490;-71
2021/08/23 05:20:33;;;;;;;4.93;2.70;;;14.90;99.90;;;;;;6124961;23;20451;-71
2021/08/23 05:22:59;;;;;;;4.03;3.40;;;14.90;99.90;;;;;;6125743;23;20443;-71
2021/08/23 05:25:26;;;;;;;3.53;2.77;;;15.00;99.90;;;;;;6126245;23;20565;-70
2021/08/23 05:27:54;;;;;;;3.33;3.07;;;15.00;99.90;;;;;;6127170;23;20431;-71
2021/08/23 05:30:21;;;;;;;11.10;5.20;;;15.00;99.90;;;;;;6125961;23;20427;-71
2021/08/23 05:32:48;;;;;;;3.27;3.03;;;15.10;99.90;;;;;;6126622;23;20442;-71
2021/08/23 05:35:14;;;;;;;2.90;2.70;;;15.10;99.90;;;;;;6127102;23;20434;-71
2021/08/23 05:37:42;;;;;;;4.00;3.27;;;15.20;99.90;;;;;;6126912;23;20423;-71
2021/08/23 05:40:10;;;;;;;8.30;4.20;;;15.20;99.90;;;;;;6126327;23;20566;-71
2021/08/23 05:42:37;;;;;;;3.77;2.73;;;15.20;99.90;;;;;;6126853;23;20443;-71
2021/08/23 05:45:07;;;;;;;8.27;2.83;;;15.30;99.90;;;;;;6126555;23;20424;-71
2021/08/23 05:47:34;;;;;;;4.30;2.80;;;15.40;99.90;;;;;;6127217;23;20490;-71
2021/08/23 05:50:00;;;;;;;3.90;2.80;;;15.40;99.90;;;;;;6126518;23;20926;-71
2021/08/23 05:52:27;;;;;;;3.27;2.70;;;15.40;99.90;;;;;;6126466;23;20481;-71
2021/08/23 05:54:54;;;;;;;2.70;2.50;;;15.50;99.90;;;;;;6125744;23;20427;-70
2021/08/23 05:57:22;;;;;;;2.53;2.43;;;15.50;99.90;;;;;;6126885;23;20424;-71
2021/08/23 05:59:48;;;;;;;7.77;2.70;;;15.50;99.90;;;;;;6136444;23;20427;-71
2021/08/23 06:02:16;;;;;;;2.73;2.50;;;15.60;99.90;;;;;;6125249;23;20533;-71
2021/08/23 06:04:43;;;;;;;3.43;3.17;;;15.60;99.90;;;;;;6126798;23;20794;-71
2021/08/23 06:07:10;;;;;;;3.20;2.90;;;15.70;99.90;;;;;;6126394;23;20522;-71
2021/08/23 06:09:37;;;;;;;3.47;2.30;;;15.70;99.90;;;;;;6126613;23;20430;-71
2021/08/23 06:12:04;;;;;;;2.60;2.40;;;15.80;99.90;;;;;;6126071;23;20759;-69
2021/08/23 06:14:31;;;;;;;2.43;2.23;;;15.90;99.90;;;;;;6126978;23;20560;-70
2021/08/23 06:16:57;;;;;;;2.40;2.30;;;16.10;99.90;;;;;;6126307;23;20424;-70
2021/08/23 06:19:25;;;;;;;4.60;2.17;;;16.50;99.90;;;;;;6126874;23;20423;-71
2021/08/23 06:21:52;;;;;;;2.73;2.30;;;17.00;99.90;;;;;;6126406;23;20447;-70
2021/08/23 06:24:21;;;;;;;1.90;1.67;;;17.40;99.90;;;;;;6126380;23;20502;-70
2021/08/23 06:26:48;;;;;;;2.03;1.87;;;17.60;99.90;;;;;;6126003;23;20527;-71
2021/08/23 06:29:15;;;;;;;4.20;2.17;;;17.80;99.90;;;;;;6127125;23;20428;-71
2021/08/23 06:31:41;;;;;;;2.73;2.40;;;18.00;99.90;;;;;;6125909;23;20472;-71
2021/08/23 06:34:08;;;;;;;2.00;1.90;;;18.10;99.90;;;;;;6135650;23;20443;-71
2021/08/23 06:36:39;;;;;;;3.00;1.77;;;18.10;99.90;;;;;;6126492;23;20798;-71
2021/08/23 06:39:05;;;;;;;2.23;2.13;;;18.00;99.90;;;;;;6126601;23;20408;-71
2021/08/23 06:41:32;;;;;;;2.33;2.00;;;17.90;99.90;;;;;;6125717;23;20809;-71
2021/08/23 06:43:59;;;;;;;1.90;1.80;;;17.80;99.90;;;;;;6125693;23;20420;-71
2021/08/23 06:46:25;;;;;;;2.00;1.90;;;17.70;99.90;;;;;;6125914;23;20423;-71
2021/08/23 06:48:52;;;;;;;2.20;2.10;;;17.60;99.90;;;;;;6126418;23;20494;-72
2021/08/23 06:51:21;;;;;;;1.90;1.80;;;17.40;99.90;;;;;;6126311;23;20506;-71
2021/08/23 06:53:49;;;;;;;2.00;2.00;;;17.30;99.90;;;;;;6126332;23;20427;-71
2021/08/23 06:56:16;;;;;;;2.37;2.30;;;17.20;99.90;;;;;;6126582;23;20427;-71
2021/08/23 06:58:43;;;;;;;2.30;2.10;;;17.20;99.90;;;;;;6125971;23;20428;-71
2021/08/23 07:01:10;;;;;;;1.80;1.70;;;17.10;99.90;;;;;;6125666;23;20566;-71
2021/08/23 07:03:37;;;;;;;2.33;2.23;;;17.10;99.90;;;;;;6135501;23;20455;-70
2021/08/23 07:06:04;;;;;;;2.27;2.07;;;17.10;99.90;;;;;;6125885;23;20442;-71
2021/08/23 07:08:30;;;;;;;2.00;1.90;;;17.10;99.90;;;;;;6126405;23;20411;-71
2021/08/23 07:11:01;;;;;;;2.90;2.10;;;17.10;99.90;;;;;;6125615;23;20447;-71
2021/08/23 07:13:28;;;;;;;1.90;1.90;;;17.20;99.90;;;;;;6126143;23;20491;-71
2021/08/23 07:15:54;;;;;;;1.93;1.83;;;17.20;99.90;;;;;;6125521;23;20438;-71
2021/08/23 07:18:22;;;;;;;4.10;2.40;;;17.20;99.90;;;;;;6126173;23;20423;-71
2021/08/23 07:20:52;;;;;;;1.93;1.93;;;17.20;99.90;;;;;;6125687;23;20483;-69
2021/08/23 07:23:18;;;;;;;2.03;1.93;;;17.30;99.90;;;;;;6125887;23;20443;-69
2021/08/23 07:25:45;;;;;;;2.20;2.00;;;17.30;99.90;;;;;;6124997;23;20430;-69
2021/08/23 07:28:14;;;;;;;3.80;1.60;;;17.40;99.90;;;;;;6126279;23;20424;-69
2021/08/23 07:30:40;;;;;;;1.77;1.63;;;17.40;99.90;;;;;;6125123;23;20470;-69
2021/08/23 07:33:07;;;;;;;3.40;1.60;;;17.50;99.90;;;;;;6125700;23;20471;-69
2021/08/23 07:35:34;;;;;;;1.30;1.30;;;17.50;99.90;;;;;;6125837;23;20423;-69
2021/08/23 07:38:00;;;;;;;1.60;1.50;;;17.50;99.90;;;;;;6125583;23;20435;-69
2021/08/23 07:40:27;;;;;;;1.63;1.57;;;17.60;99.90;;;;;;6125174;23;20498;-69
2021/08/23 07:42:55;;;;;;;2.13;1.80;;;17.60;99.90;;;;;;6125328;23;20502;-69
2021/08/23 07:45:23;;;;;;;2.03;1.83;;;17.60;99.90;;;;;;6124775;23;20464;-70
2021/08/23 07:47:49;;;;;;;2.57;2.10;;;17.60;99.90;;;;;;6126181;23;20743;-71
2021/08/23 07:50:17;;;;;;;3.33;1.40;;;17.60;99.90;;;;;;6125629;23;20446;-69
2021/08/23 07:52:44;;;;;;;2.27;1.20;;;17.70;99.90;;;;;;6125497;23;20420;-68
2021/08/23 07:55:12;;;;;;;1.40;1.40;;;17.70;99.90;;;;;;6125142;23;20901;-68
2021/08/23 07:57:42;;;;;;;1.77;1.77;;;17.70;99.90;;;;;;6125685;23;20424;-68
2021/08/23 08:00:10;;;;;;;1.40;1.30;;;17.80;99.90;;;;;;6134653;23;20984;-69
2021/08/23 08:02:38;;;;;;;2.53;1.60;;;17.80;99.90;;;;;;6124964;23;21020;-69
2021/08/23 08:05:07;;;;;;;1.60;1.17;;;17.90;99.90;;;;;;6125726;23;20424;-69
2021/08/23 08:07:33;;;;;;;1.53;1.43;;;18.00;99.90;;;;;;6125135;23;20440;-69
2021/08/23 08:10:00;;;;;;;1.70;1.60;;;18.00;99.90;;;;;;6125125;23;20431;-69
2021/08/23 08:12:27;;;;;;;1.70;1.60;;;18.00;99.90;;;;;;6125516;23;20446;-69
2021/08/23 08:14:54;;;;;;;1.53;1.53;;;18.10;99.90;;;;;;6125758;23;20475;-69
2021/08/23 08:17:21;;;;;;;1.37;1.37;;;18.20;99.90;;;;;;6124749;23;20423;-69
2021/08/23 08:19:49;;;;;;;1.30;1.30;;;18.20;99.90;;;;;;6125693;23;20745;-69
2021/08/23 08:22:16;;;;;;;1.40;1.40;;;18.30;99.90;;;;;;6125057;23;20447;-69
2021/08/23 08:24:42;;;;;;;3.17;1.67;;;18.40;99.90;;;;;;6125810;23;20495;-69
2021/08/23 08:27:09;;;;;;;1.27;1.27;;;18.40;99.90;;;;;;6134702;23;20761;-70
2021/08/23 08:29:36;;;;;;;1.13;1.13;;;18.50;99.90;;;;;;6125524;23;20515;-69
2021/08/23 08:32:03;;;;;;;1.10;1.10;;;18.60;99.90;;;;;;6124436;23;20788;-66
2021/08/23 08:34:30;;;;;;;1.07;1.07;;;18.60;99.90;;;;;;6125455;23;20478;-68
2021/08/23 08:36:58;;;;;;;1.20;1.10;;;18.70;99.90;;;;;;6124995;23;20493;-70
2021/08/23 08:39:25;;;;;;;1.10;1.10;;;18.70;99.90;;;;;;6125451;23;20423;-67
2021/08/23 08:41:51;;;;;;;1.30;1.30;;;18.80;99.90;;;;;;6124610;23;20442;-67
2021/08/23 08:44:18;;;;;;;1.27;1.27;;;18.80;99.90;;;;;;6124845;23;20454;-67
2021/08/23 08:46:46;;;;;;;1.90;1.43;;;18.80;99.90;;;;;;6124729;23;20423;-68
2021/08/23 08:49:13;;;;;;;1.30;1.13;;;18.90;99.90;;;;;;6125244;23;20423;-68
2021/08/23 08:51:41;;;;;;;0.90;0.90;;;19.00;99.90;;;;;;6124197;23;20451;-68
2021/08/23 08:54:09;;;;;;;0.97;0.97;;;19.00;99.90;;;;;;6124747;23;20514;-68
2021/08/23 08:56:36;;;;;;;1.13;1.13;;;19.00;99.90;;;;;;6124295;23;20917;-69
2021/08/23 08:59:05;;;;;;;1.10;1.10;;;19.00;99.90;;;;;;6125625;23;20423;-68
2021/08/23 09:01:32;;;;;;;1.40;1.30;;;19.00;99.90;;;;;;6124286;23;20834;-68
2021/08/23 09:04:02;;;;;;;1.30;1.30;;;19.10;99.90;;;;;;6125149;23;20469;-69
2021/08/23 09:06:38;;;;;;;1.13;1.03;;;19.10;99.90;;;;;;6124709;23;20502;-69
2021/08/23 09:09:11;;;;;;;1.77;1.60;;;19.20;99.90;;;;;;6125451;23;20408;-69
2021/08/23 09:11:39;;;;;;;1.13;1.13;;;19.30;99.90;;;;;;6124769;23;20506;-68
2021/08/23 09:14:07;;;;;;;0.93;0.93;;;19.30;99.90;;;;;;6125186;23;20797;-69
2021/08/23 09:16:35;;;;;;;1.20;1.20;;;19.30;99.90;;;;;;6124637;23;20754;-68
2021/08/23 09:19:02;;;;;;;1.17;1.17;;;19.40;99.90;;;;;;6125263;23;20450;-69
2021/08/23 09:21:29;;;;;;;1.60;1.50;;;19.40;99.90;;;;;;6124802;23;20965;-69
2021/08/23 09:23:58;;;;;;;2.40;1.37;;;19.40;99.90;;;;;;6124959;23;20444;-69
2021/08/23 09:26:31;;;;;;;1.17;1.10;;;19.50;99.90;;;;;;6124525;23;20723;-69
2021/08/23 09:29:01;;;;;;;1.30;1.03;;;19.50;99.90;;;;;;6125461;23;20473;-69
2021/08/23 09:31:29;;;;;;;1.20;1.10;;;19.50;99.90;;;;;;6125007;23;20513;-69
2021/08/23 09:33:59;;;;;;;0.90;0.90;;;19.60;99.90;;;;;;6124525;23;20901;-69
2021/08/23 09:36:27;;;;;;;1.40;1.40;;;19.60;99.90;;;;;;6125057;23;20408;-70
2021/08/23 09:39:02;;;;;;;1.23;1.20;;;19.70;99.90;;;;;;6124601;23;20898;-69
2021/08/23 09:41:30;;;;;;;1.20;1.10;;;19.80;99.90;;;;;;6124666;23;20480;-69
2021/08/23 09:44:05;;;;;;;1.03;1.03;;;19.90;99.90;;;;;;6124199;23;20447;-69
2021/08/23 09:46:35;;;;;;;1.20;1.13;;;19.90;99.90;;;;;;6124454;23;20439;-69
2021/08/23 09:49:03;;;;;;;1.60;1.50;;;19.90;99.90;;;;;;6125381;23;20424;-69
2021/08/23 09:51:32;;;;;;;2.77;2.30;;;20.00;99.90;;;;;;6124948;23;20443;-69
2021/08/23 09:54:06;;;;;;;1.00;1.00;;;20.10;99.90;;;;;;6125921;23;20420;-71
2021/08/23 09:56:36;;;;;;;2.90;1.73;;;20.10;99.90;;;;;;6124784;23;20474;-69
2021/08/23 09:59:04;;;;;;;1.90;1.80;;;20.20;99.90;;;;;;6125217;23;20458;-68
2021/08/23 10:01:32;;;;;;;1.23;1.20;;;20.30;99.90;;;;;;6124673;23;20461;-68
2021/08/23 10:04:03;;;;;;;1.30;1.30;;;20.30;99.90;;;;;;6126054;23;20448;-69
2021/08/23 10:06:31;;;;;;;1.03;1.03;;;20.30;99.90;;;;;;6125433;23;20436;-69
2021/08/23 10:08:58;;;;;;;1.70;1.60;;;20.30;99.90;;;;;;6127136;23;20423;-69
2021/08/23 10:11:25;;;;;;;1.40;1.30;;;20.40;99.90;;;;;;6125566;23;20482;-68
2021/08/23 10:13:53;;;;;;;1.10;1.10;;;20.40;99.90;;;;;;6126708;23;20471;-69
2021/08/23 10:16:21;;;;;;;1.70;1.60;;;20.50;99.90;;;;;;6126193;23;20428;-69
2021/08/23 10:18:48;;;;;;;1.23;1.23;;;20.50;99.90;;;;;;6126699;23;20474;-70
2021/08/23 10:21:15;;;;;;;2.20;2.20;;;20.60;99.90;;;;;;6126433;23;20531;-69
2021/08/23 10:23:43;;;;;;;1.20;1.20;;;20.70;99.90;;;;;;6126426;23;20755;-68
2021/08/23 10:26:10;;;;;;;1.63;1.53;;;20.80;99.90;;;;;;6125458;23;20439;-68
2021/08/23 10:28:38;;;;;;;1.33;1.30;;;20.80;99.90;;;;;;6126622;23;20702;-69
2021/08/23 10:31:10;;;;;;;2.93;1.47;;;20.90;99.90;;;;;;6125368;23;20443;-68
2021/08/23 10:33:39;;;;;;;1.57;1.30;;;21.00;99.90;;;;;;6126214;23;20420;-68
2021/08/23 10:36:07;;;;;;;1.20;1.10;;;21.20;99.90;;;;;;6126043;23;20749;-69
2021/08/23 10:38:34;;;;;;;1.07;1.07;;;21.40;99.90;;;;;;6126527;23;20479;-68
2021/08/23 10:41:09;;;;;;;1.60;1.60;;;21.40;99.90;;;;;;6125576;23;20444;-69
2021/08/23 10:43:48;;;;;;;1.50;1.50;;;21.40;99.90;;;;;;6126176;23;20443;-70
2021/08/23 10:46:27;;;;;;;1.10;1.10;;;21.30;99.90;;;;;;6125747;23;20451;-69
2021/08/23 10:48:55;;;;;;;1.60;1.50;;;21.20;99.90;;;;;;6126027;23;20411;-69
2021/08/23 10:51:34;;;;;;;1.13;1.13;;;21.10;99.90;;;;;;6126178;23;20445;-69
2021/08/23 10:54:01;;;;;;;1.20;1.20;;;21.10;99.90;;;;;;6126112;23;20411;-69
2021/08/23 10:56:36;;;;;;;1.77;1.77;;;21.10;99.90;;;;;;6125561;23;20424;-69
2021/08/23 10:59:13;;;;;;;1.30;1.20;;;21.20;99.90;;;;;;6125941;23;20905;-70
2021/08/23 11:01:53;;;;;;;1.40;1.40;;;21.40;99.90;;;;;;6125145;23;20483;-69
2021/08/23 11:04:37;;;;;;;1.10;1.10;;;21.50;99.90;;;;;;6125924;23;20435;-69
2021/08/23 11:07:05;;;;;;;0.90;0.90;;;21.60;99.90;;;;;;6126147;23;20579;-69
2021/08/23 11:09:41;;;;;;;1.13;1.13;;;21.80;99.90;;;;;;6126111;23;20431;-69
2021/08/23 11:12:16;;;;;;;1.67;1.57;;;21.90;99.90;;;;;;6125039;23;20442;-70
2021/08/23 11:14:45;;;;;;;6.43;1.27;;;21.90;99.90;;;;;;6126053;23;20420;-71
2021/08/23 11:17:24;;;;;;;1.00;1.00;;;21.70;99.90;;;;;;6125353;23;20475;-71
2021/08/23 11:19:51;;;;;;;1.80;1.33;;;21.70;99.90;;;;;;6125843;23;20408;-71
2021/08/23 11:22:19;;;;;;;1.60;1.17;;;21.70;99.90;;;;;;6125917;23;20451;-71
2021/08/23 11:24:45;;;;;;;1.47;1.37;;;21.70;99.90;;;;;;6126174;23;20463;-71
2021/08/23 11:27:14;;;;;;;0.87;0.87;;;21.80;99.90;;;;;;6125606;23;20423;-72
2021/08/23 11:29:49;;;;;;;0.97;0.97;;;21.90;99.90;;;;;;6125865;23;20909;-72
2021/08/23 11:32:17;;;;;;;1.00;1.00;;;21.90;99.90;;;;;;6124922;23;20474;-72
2021/08/23 11:34:50;;;;;;;1.00;1.00;;;21.90;99.90;;;;;;6125930;23;20426;-72
2021/08/23 11:37:18;;;;;;;1.60;1.50;;;21.80;99.90;;;;;;6125749;23;20522;-71
2021/08/23 11:39:45;;;;;;;0.90;0.90;;;21.70;99.90;;;;;;6125982;23;20430;-72
2021/08/23 11:42:12;;;;;;;1.23;1.13;;;21.60;99.90;;;;;;6124483;23;20773;-72
2021/08/23 11:44:41;;;;;;;1.60;0.90;;;21.50;99.90;;;;;;6125470;23;20452;-72
2021/08/23 11:47:08;;;;;;;1.27;1.27;;;21.60;99.90;;;;;;6124819;23;20427;-72
2021/08/23 11:49:38;;;;;;;1.43;1.40;;;21.60;99.90;;;;;;6125881;23;20423;-72
2021/08/23 11:52:13;;;;;;;0.90;0.90;;;21.70;99.90;;;;;;6125321;23;20475;-71
2021/08/23 11:54:41;;;;;;;1.53;1.30;;;21.70;99.90;;;;;;6125820;23;20438;-72
2021/08/23 11:57:08;;;;;;;1.17;1.17;;;21.50;99.90;;;;;;6125553;23;20423;-71
2021/08/23 11:59:35;;;;;;;1.30;1.30;;;21.40;99.90;;;;;;6125374;23;20434;-70
2021/08/23 12:02:10;;;;;;;1.20;1.20;;;21.40;99.90;;;;;;6124317;23;20510;-72
2021/08/23 12:04:38;;;;;;;0.80;0.80;;;21.60;99.90;;;;;;6125561;23;20510;-72
2021/08/23 12:07:05;;;;;;;1.00;1.00;;;21.60;99.90;;;;;;6125513;23;20498;-72
2021/08/23 12:09:33;;;;;;;1.37;1.20;;;21.70;99.90;;;;;;6125832;23;20478;-72
2021/08/23 12:12:00;;;;;;;1.10;1.10;;;21.60;99.90;;;;;;6124832;23;20447;-72
2021/08/23 12:14:28;;;;;;;1.27;1.17;;;21.70;99.90;;;;;;6125147;23;20451;-73
2021/08/23 12:16:55;;;;;;;1.80;0.97;;;21.80;99.90;;;;;;6124338;23;20443;-73
2021/08/23 12:19:22;;;;;;;0.97;0.97;;;21.90;99.90;;;;;;6125331;23;20800;-72
2021/08/23 12:22:00;;;;;;;1.20;1.17;;;22.00;99.90;;;;;;6125432;23;20527;-71
2021/08/23 12:24:28;;;;;;;1.10;1.10;;;22.00;99.90;;;;;;6125370;23;20439;-71
2021/08/23 12:26:56;;;;;;;0.80;0.80;;;22.10;99.90;;;;;;6125094;23;20423;-72
2021/08/23 12:29:25;;;;;;;1.50;1.40;;;22.20;99.90;;;;;;6125302;23;20813;-72
2021/08/23 12:31:54;;;;;;;0.70;0.70;;;22.30;99.90;;;;;;6124533;23;20448;-72
2021/08/23 12:34:23;;;;;;;1.10;1.10;;;22.40;99.90;;;;;;6125603;23;20419;-72
2021/08/23 12:36:51;;;;;;;0.93;0.60;;;22.50;99.90;;;;;;6125309;23;20431;-71
2021/08/23 12:39:19;;;;;;;1.00;1.00;;;22.60;99.90;;;;;;6126294;23;20905;-72
2021/08/23 12:41:48;;;;;;;1.57;1.57;;;22.60;99.90;;;;;;6124593;23;20478;-72
2021/08/23 12:44:16;;;;;;;1.23;1.10;;;22.60;99.90;;;;;;6125061;23;20748;-71
2021/08/23 12:46:43;;;;;;;2.00;1.17;;;22.60;99.90;;;;;;6125333;23;20423;-71
2021/08/23 12:49:11;;;;;;;1.73;1.30;;;22.40;99.90;;;;;;6125566;23;20423;-71
2021/08/23 12:51:40;;;;;;;0.90;0.90;;;22.20;99.90;;;;;;6125853;23;20444;-71
2021/08/23 12:54:08;;;;;;;1.10;1.10;;;22.10;99.90;;;;;;6125623;23;20922;-71
2021/08/23 12:56:35;;;;;;;1.50;1.40;;;22.10;99.90;;;;;;6128036;23;20852;-71
2021/08/23 12:59:02;;;;;;;0.93;0.93;;;22.00;99.90;;;;;;6127575;23;20424;-71
2021/08/23 13:01:28;;;;;;;1.17;1.10;;;21.80;99.90;;;;;;6127046;23;20565;-70
2021/08/23 13:03:55;;;;;;;0.80;0.80;;;21.70;99.90;;;;;;6127970;23;20451;-70
2021/08/23 13:06:22;;;;;;;1.37;1.27;;;21.60;99.90;;;;;;6128113;23;20446;-70
2021/08/23 13:08:49;;;;;;;3.40;1.30;;;21.60;99.90;;;;;;6128779;23;20423;-69
2021/08/23 13:11:17;;;;;;;1.00;1.00;;;21.80;99.90;;;;;;6124694;23;20447;-69
2021/08/23 13:13:44;;;;;;;1.47;1.40;;;21.90;99.90;;;;;;6126374;23;20878;-72
2021/08/23 13:16:11;;;;;;;1.33;1.33;;;22.10;99.90;;;;;;6127860;23;20782;-72
2021/08/23 13:18:38;;;;;;;0.70;0.70;;;22.30;99.90;;;;;;6126191;23;20423;-72
2021/08/23 13:21:05;;;;;;;1.03;1.03;;;22.50;99.90;;;;;;6134169;23;20448;-72
2021/08/23 13:23:32;;;;;;;1.30;1.20;;;22.60;99.90;;;;;;6124947;23;20428;-71
2021/08/23 13:25:59;;;;;;;1.43;1.43;;;22.70;99.90;;;;;;6124511;23;20427;-72
2021/08/23 13:28:28;;;;;;;1.47;0.90;;;22.70;99.90;;;;;;6125203;23;20446;-72
2021/08/23 13:30:55;;;;;;;1.07;1.07;;;22.40;99.90;;;;;;6124023;23;20949;-72
2021/08/23 13:33:21;;;;;;;3.80;1.30;;;22.20;99.90;;;;;;6124423;23;20431;-72
2021/08/23 13:35:48;;;;;;;1.70;1.17;;;22.10;99.90;;;;;;6124819;23;20419;-72
2021/08/23 13:38:16;;;;;;;1.73;1.07;;;21.90;99.90;;;;;;6125114;23;20478;-72
2021/08/23 13:40:45;;;;;;;1.43;1.33;;;21.90;99.90;;;;;;6124263;23;20447;-72
2021/08/23 13:43:13;;;;;;;2.60;1.00;;;21.80;99.90;;;;;;6124910;23;20435;-72
2021/08/23 13:45:42;;;;;;;1.10;1.10;;;21.70;99.90;;;;;;6126115;23;20523;-72
2021/08/23 13:48:11;;;;;;;2.80;1.13;;;21.60;99.90;;;;;;6127072;23;20423;-72
2021/08/23 13:50:39;;;;;;;2.67;1.30;;;21.50;99.90;;;;;;6126619;23;20443;-72
2021/08/23 13:53:06;;;;;;;1.37;1.27;;;21.40;99.90;;;;;;6126779;23;20493;-72
2021/08/23 13:55:33;;;;;;;1.33;1.33;;;21.50;99.90;;;;;;6125938;23;20438;-71
2021/08/23 13:58:00;;;;;;;1.80;1.77;;;21.80;99.90;;;;;;6126940;23;20424;-73
2021/08/23 14:00:27;;;;;;;1.10;1.10;;;21.90;99.90;;;;;;6125242;23;20980;-72
2021/08/23 14:02:55;;;;;;;1.17;1.17;;;22.00;99.90;;;;;;6126662;23;20411;-73
2021/08/23 14:05:22;;;;;;;1.03;1.00;;;22.00;99.90;;;;;;6126602;23;20539;-73
2021/08/23 14:07:53;;;;;;;1.00;0.90;;;21.90;99.90;;;;;;6126814;23;20430;-73
2021/08/23 14:10:20;;;;;;;1.03;1.03;;;21.80;99.90;;;;;;6125609;23;20408;-72
2021/08/23 14:12:47;;;;;;;1.13;1.13;;;21.80;99.90;;;;;;6126117;23;20870;-72
2021/08/23 14:15:14;;;;;;;0.80;0.80;;;21.60;99.90;;;;;;6125848;23;20504;-72
2021/08/23 14:17:41;;;;;;;1.00;0.90;;;21.50;99.90;;;;;;6126632;23;20431;-73
2021/08/23 14:20:11;;;;;;;1.70;0.90;;;21.40;99.90;;;;;;6126211;23;20432;-73
2021/08/23 14:22:37;;;;;;;1.10;1.10;;;21.50;99.90;;;;;;6126440;23;20427;-71
2021/08/23 14:25:05;;;;;;;1.00;1.00;;;21.50;99.90;;;;;;6125751;23;20473;-70
2021/08/23 14:27:32;;;;;;;1.07;1.07;;;21.50;99.90;;;;;;6126553;23;20424;-70
2021/08/23 14:29:59;;;;;;;1.13;1.13;;;21.60;99.90;;;;;;6126093;23;20423;-68
2021/08/23 14:32:25;;;;;;;0.70;0.70;;;21.60;99.90;;;;;;6125853;23;20447;-70
2021/08/23 14:34:52;;;;;;;1.00;1.00;;;21.70;99.90;;;;;;6126232;23;20474;-70
2021/08/23 14:37:20;;;;;;;1.20;1.10;;;21.60;99.90;;;;;;6126281;23;20482;-70
2021/08/23 14:39:47;;;;;;;0.70;0.70;;;21.50;99.90;;;;;;6126776;23;20431;-71
2021/08/23 14:42:13;;;;;;;1.20;1.10;;;21.60;99.90;;;;;;6125442;23;20454;-71
2021/08/23 14:44:40;;;;;;;0.80;0.80;;;21.70;99.90;;;;;;6126309;23;20463;-71
2021/08/23 14:47:07;;;;;;;0.80;0.80;;;21.80;99.90;;;;;;6135016;23;20450;-69
2021/08/23 14:49:35;;;;;;;0.90;0.90;;;21.90;99.90;;;;;;6125809;23;20918;-70
2021/08/23 14:52:02;;;;;;;1.23;1.20;;;22.10;99.90;;;;;;6125999;23;20447;-71
2021/08/23 14:54:30;;;;;;;0.83;0.70;;;22.30;99.90;;;;;;6126367;23;20427;-70
2021/08/23 14:56:57;;;;;;;0.90;0.90;;;22.30;99.90;;;;;;6125592;23;20423;-71
2021/08/23 14:59:23;;;;;;;1.00;0.90;;;22.30;99.90;;;;;;6126162;23;20431;-71
2021/08/23 15:01:50;;;;;;;0.80;0.80;;;22.10;99.90;;;;;;6124908;23;20451;-71
2021/08/23 15:04:16;;;;;;;1.00;0.83;;;22.00;99.90;;;;;;6125449;23;20985;-72
2021/08/23 15:06:43;;;;;;;1.10;1.10;;;21.80;99.90;;;;;;6125810;23;20420;-71
2021/08/23 15:09:10;;;;;;;1.13;1.03;;;21.70;99.90;;;;;;6125809;23;20783;-71
2021/08/23 15:11:38;;;;;;;2.97;1.10;;;21.70;99.90;;;;;;6124844;23;20456;-72
2021/08/23 15:14:04;;;;;;;1.07;1.07;;;21.60;99.90;;;;;;6125851;23;20502;-71
2021/08/23 15:16:32;;;;;;;0.70;0.70;;;21.50;99.90;;;;;;6125259;23;20424;-71
2021/08/23 15:18:59;;;;;;;0.70;0.70;;;21.40;99.90;;;;;;6126034;23;20430;-71
2021/08/23 15:21:26;;;;;;;0.90;0.80;;;21.30;99.90;;;;;;6125358;23;20451;-71
2021/08/23 15:23:53;;;;;;;1.10;1.10;;;21.20;99.90;;;;;;6125394;23;20434;-71
2021/08/23 15:26:19;;;;;;;6.70;1.30;;;21.20;99.90;;;;;;6124705;23;20478;-71
2021/08/23 15:28:47;;;;;;;1.30;1.20;;;21.30;99.90;;;;;;6125888;23;20423;-71
2021/08/23 15:31:14;;;;;;;1.27;1.27;;;21.40;99.90;;;;;;6125149;23;20447;-71
2021/08/23 15:33:41;;;;;;;0.83;0.83;;;21.40;99.90;;;;;;6125935;23;20424;-71
2021/08/23 15:36:09;;;;;;;0.93;0.80;;;21.30;99.90;;;;;;6125688;23;20487;-70
2021/08/23 15:38:35;;;;;;;0.90;0.90;;;21.40;99.90;;;;;;6125889;23;20479;-70
2021/08/23 15:41:02;;;;;;;1.20;1.20;;;21.40;99.90;;;;;;6125135;23;20953;-71
2021/08/23 15:43:32;;;;;;;1.03;1.03;;;21.30;99.90;;;;;;6125104;23;20424;-71
2021/08/23 15:46:00;;;;;;;6.53;1.43;;;21.20;99.90;;;;;;6124829;23;20519;-71
2021/08/23 15:48:27;;;;;;;0.80;0.80;;;21.20;99.90;;;;;;6125647;23;20801;-71
2021/08/23 15:50:54;;;;;;;0.77;0.77;;;21.30;99.90;;;;;;6124614;23;20506;-69
2021/08/23 15:53:20;;;;;;;1.07;0.97;;;21.20;99.90;;;;;;6125322;23;20408;-69
2021/08/23 15:55:48;;;;;;;0.90;0.90;;;21.20;99.90;;;;;;6124517;23;20474;-70
2021/08/23 15:58:16;;;;;;;0.80;0.80;;;21.30;99.90;;;;;;6126364;23;20424;-69
2021/08/23 16:00:42;;;;;;;0.60;0.60;;;21.20;99.90;;;;;;6124344;23;21103;-68
2021/08/23 16:03:11;;;;;;;1.00;1.00;;;21.20;99.90;;;;;;6124482;23;20423;-69
2021/08/23 16:05:40;;;;;;;0.93;0.90;;;21.20;99.90;;;;;;6124804;23;20442;-69
2021/08/23 16:08:06;;;;;;;2.43;0.97;;;21.20;99.90;;;;;;6125032;23;20459;-68
2021/08/23 16:10:33;;;;;;;1.53;1.07;;;21.10;99.90;;;;;;6124016;23;20479;-69
2021/08/23 16:13:00;;;;;;;0.83;0.83;;;21.10;99.90;;;;;;6124744;23;20802;-68
2021/08/23 16:15:26;;;;;;;0.80;0.80;;;21.10;99.90;;;;;;6123874;23;20444;-68
2021/08/23 16:17:53;;;;;;;0.80;0.80;;;21.10;99.90;;;;;;6125150;23;20416;-70
2021/08/23 16:20:21;;;;;;;0.87;0.87;;;21.10;99.90;;;;;;6124550;23;20424;-68
2021/08/23 16:22:48;;;;;;;0.70;0.70;;;21.00;99.90;;;;;;6124485;23;20428;-71
2021/08/23 16:25:16;;;;;;;2.90;1.10;;;21.10;99.90;;;;;;6124509;23;20451;-69
2021/08/23 16:27:43;;;;;;;0.80;0.80;;;21.00;99.90;;;;;;6125000;23;20440;-69
2021/08/23 16:30:10;;;;;;;0.93;0.93;;;21.00;99.90;;;;;;6124197;23;20507;-69
2021/08/23 16:32:36;;;;;;;0.83;0.83;;;21.00;99.90;;;;;;6124590;23;20951;-69
2021/08/23 16:35:04;;;;;;;1.10;1.10;;;20.90;99.90;;;;;;6124352;23;20419;-68
2021/08/23 16:37:32;;;;;;;1.10;1.10;;;20.90;99.90;;;;;;6124551;23;20902;-69
2021/08/23 16:39:58;;;;;;;1.40;1.30;;;20.80;99.90;;;;;;6124313;23;20435;-70
2021/08/23 16:42:25;;;;;;;1.07;1.07;;;20.80;99.90;;;;;;6124623;23;20506;-69
2021/08/23 16:44:52;;;;;;;1.00;0.93;;;20.70;99.90;;;;;;6124930;23;20450;-70
2021/08/23 16:47:18;;;;;;;1.00;1.00;;;20.70;99.90;;;;;;6124799;23;20574;-69
2021/08/23 16:49:45;;;;;;;1.07;1.07;;;20.60;99.90;;;;;;6126720;23;20431;-69